createdAt,value
2023-01-28T00:00:14.066Z,0.00
2023-01-28T00:01:14.056Z,0.00
2023-01-28T00:02:14.149Z,0.00
2023-01-28T00:03:14.029Z,0.00
2023-01-28T00:04:14.026Z,0.00
2023-01-28T00:05:14.315Z,0.00
2023-01-28T00:06:14.305Z,0.00
2023-01-28T00:07:13.990Z,0.00
2023-01-28T00:08:14.093Z,0.00
2023-01-28T00:09:13.959Z,0.00
2023-01-28T00:10:14.228Z,0.00
2023-01-28T00:11:14.008Z,0.00
2023-01-28T00:12:13.955Z,0.00
2023-01-28T00:13:13.917Z,0.00
2023-01-28T00:14:13.940Z,0.00
2023-01-28T00:15:14.211Z,0.00
2023-01-28T00:16:13.980Z,0.00
2023-01-28T00:17:13.859Z,0.00
2023-01-28T00:18:13.880Z,0.00
2023-01-28T00:19:13.850Z,0.00
2023-01-28T00:20:13.849Z,0.00
2023-01-28T00:21:13.835Z,0.00
2023-01-28T00:22:13.800Z,0.00
2023-01-28T00:23:13.785Z,0.00
2023-01-28T00:24:13.847Z,0.00
2023-01-28T00:25:14.085Z,0.00
2023-01-28T00:26:13.874Z,0.00
2023-01-28T00:27:13.741Z,0.00
2023-01-28T00:28:13.731Z,0.00
2023-01-28T00:29:14.021Z,0.00
2023-01-28T00:30:13.970Z,0.00
2023-01-28T00:31:13.705Z,0.00
2023-01-28T00:32:13.713Z,0.00
2023-01-28T00:33:14.406Z,0.00
2023-01-28T00:34:14.565Z,0.00
2023-01-28T00:35:14.052Z,0.00
2023-01-28T00:36:13.624Z,0.00
2023-01-28T00:37:13.639Z,0.00
2023-01-28T00:38:13.708Z,0.00
2023-01-28T00:39:13.596Z,0.00
2023-01-28T00:40:13.576Z,0.00
2023-01-28T00:41:13.609Z,0.00
2023-01-28T00:42:13.558Z,0.00
2023-01-28T00:43:14.310Z,0.00
2023-01-28T00:44:13.574Z,0.00
2023-01-28T00:45:13.743Z,0.00
2023-01-28T00:46:14.301Z,0.00
2023-01-28T00:47:17.603Z,0.00
2023-01-28T00:48:13.485Z,0.00
2023-01-28T00:49:13.739Z,0.00
2023-01-28T00:50:14.439Z,0.00
2023-01-28T00:51:13.463Z,0.00
2023-01-28T00:52:13.436Z,0.00
2023-01-28T00:53:13.428Z,0.00
2023-01-28T00:54:13.424Z,0.00
2023-01-28T00:55:13.749Z,0.00
2023-01-28T00:56:13.453Z,0.00
2023-01-28T00:57:13.402Z,0.00
2023-01-28T00:58:13.363Z,0.00
2023-01-28T00:59:13.639Z,0.00
2023-01-28T01:00:13.351Z,0.00
2023-01-28T01:01:13.384Z,0.00
2023-01-28T01:02:13.423Z,0.00
2023-01-28T01:03:14.283Z,0.00
2023-01-28T01:04:13.279Z,0.00
2023-01-28T01:05:13.520Z,0.00
2023-01-28T01:06:13.529Z,0.00
2023-01-28T01:07:13.250Z,0.00
2023-01-28T01:08:13.353Z,0.00
2023-01-28T01:09:13.252Z,0.00
2023-01-28T01:10:13.225Z,0.00
2023-01-28T01:11:13.463Z,0.00
2023-01-28T01:12:13.206Z,0.00
2023-01-28T01:13:13.170Z,0.00
2023-01-28T01:14:13.283Z,0.00
2023-01-28T01:15:13.486Z,0.00
2023-01-28T01:16:13.499Z,0.00
2023-01-28T01:17:13.121Z,0.00
2023-01-28T01:18:13.121Z,0.00
2023-01-28T01:19:13.112Z,0.00
2023-01-28T01:20:13.217Z,0.00
2023-01-28T01:21:13.069Z,0.00
2023-01-28T01:22:13.074Z,0.00
2023-01-28T01:23:13.052Z,0.00
2023-01-28T01:24:13.097Z,0.00
2023-01-28T01:25:17.233Z,0.00
2023-01-28T01:26:16.934Z,0.00
2023-01-28T01:27:13.003Z,0.00
2023-01-28T01:28:12.993Z,0.00
2023-01-28T01:29:12.974Z,0.00
2023-01-28T01:30:12.987Z,0.00
2023-01-28T01:31:12.993Z,0.00
2023-01-28T01:32:13.078Z,0.00
2023-01-28T01:33:12.942Z,0.00
2023-01-28T01:34:12.925Z,0.00
2023-01-28T01:35:13.291Z,0.00
2023-01-28T01:36:12.908Z,0.00
2023-01-28T01:37:12.966Z,0.00
2023-01-28T01:38:12.998Z,0.00
2023-01-28T01:39:12.927Z,0.00
2023-01-28T01:40:13.179Z,0.00
2023-01-28T01:41:12.922Z,0.00
2023-01-28T01:42:12.902Z,0.00
2023-01-28T01:43:12.898Z,0.00
2023-01-28T01:44:13.765Z,0.00
2023-01-28T01:45:13.457Z,0.00
2023-01-28T01:46:12.916Z,0.00
2023-01-28T01:47:13.087Z,0.00
2023-01-28T01:48:12.854Z,0.00
2023-01-28T01:49:12.823Z,0.00
2023-01-28T01:50:12.881Z,0.00
2023-01-28T01:51:13.000Z,0.00
2023-01-28T01:52:13.009Z,0.00
2023-01-28T01:53:12.784Z,0.00
2023-01-28T01:54:12.819Z,0.00
2023-01-28T01:55:13.248Z,0.00
2023-01-28T01:56:12.676Z,0.00
2023-01-28T01:57:12.645Z,0.00
2023-01-28T01:58:12.635Z,0.00
2023-01-28T01:59:12.630Z,0.00
2023-01-28T02:00:12.869Z,0.00
2023-01-28T02:01:12.596Z,0.00
2023-01-28T02:02:12.847Z,0.00
2023-01-28T02:03:12.857Z,0.00
2023-01-28T02:04:12.561Z,0.00
2023-01-28T02:05:13.235Z,0.00
2023-01-28T02:06:12.536Z,0.00
2023-01-28T02:07:12.598Z,0.00
2023-01-28T02:08:12.803Z,0.00
2023-01-28T02:09:12.521Z,0.00
2023-01-28T02:10:12.484Z,0.00
2023-01-28T02:11:12.455Z,0.00
2023-01-28T02:12:12.470Z,0.00
2023-01-28T02:13:12.444Z,0.00
2023-01-28T02:14:19.442Z,0.00
2023-01-28T02:15:13.880Z,0.00
2023-01-28T02:16:12.412Z,0.00
2023-01-28T02:17:17.151Z,0.00
2023-01-28T02:18:12.379Z,0.00
2023-01-28T02:19:12.648Z,0.00
2023-01-28T02:20:12.374Z,0.00
2023-01-28T02:21:12.375Z,0.00
2023-01-28T02:22:12.344Z,0.00
2023-01-28T02:23:16.577Z,0.00
2023-01-28T02:24:12.366Z,0.00
2023-01-28T02:25:13.254Z,0.00
2023-01-28T02:26:12.318Z,0.00
2023-01-28T02:27:12.300Z,0.00
2023-01-28T02:28:12.517Z,0.00
2023-01-28T02:29:12.508Z,0.00
2023-01-28T02:30:12.227Z,0.00
2023-01-28T02:31:12.333Z,0.00
2023-01-28T02:32:12.237Z,0.00
2023-01-28T02:33:12.199Z,0.00
2023-01-28T02:34:12.185Z,0.00
2023-01-28T02:35:13.242Z,0.00
2023-01-28T02:36:12.417Z,0.00
2023-01-28T02:37:12.144Z,0.00
2023-01-28T02:38:12.198Z,0.00
2023-01-28T02:39:12.131Z,0.00
2023-01-28T02:40:12.142Z,0.00
2023-01-28T02:41:12.100Z,0.00
2023-01-28T02:42:12.078Z,0.00
2023-01-28T02:43:13.813Z,0.00
2023-01-28T02:44:12.103Z,0.00
2023-01-28T02:45:12.654Z,0.00
2023-01-28T02:46:12.062Z,0.00
2023-01-28T02:47:12.032Z,0.00
2023-01-28T02:48:12.045Z,0.00
2023-01-28T02:49:12.041Z,0.00
2023-01-28T02:50:12.002Z,0.00
2023-01-28T02:51:11.978Z,0.00
2023-01-28T02:52:11.963Z,0.00
2023-01-28T02:53:15.752Z,0.00
2023-01-28T02:54:11.943Z,0.00
2023-01-28T02:55:12.117Z,0.00
2023-01-28T02:56:12.018Z,0.00
2023-01-28T02:57:11.917Z,0.00
2023-01-28T02:58:11.911Z,0.00
2023-01-28T02:59:12.123Z,0.00
2023-01-28T03:00:11.870Z,0.00
2023-01-28T03:01:11.895Z,0.00
2023-01-28T03:02:11.858Z,0.00
2023-01-28T03:03:12.790Z,0.00
2023-01-28T03:04:11.815Z,0.00
2023-01-28T03:05:11.971Z,0.00
2023-01-28T03:06:12.494Z,0.00
2023-01-28T03:07:11.814Z,0.00
2023-01-28T03:08:11.804Z,0.00
2023-01-28T03:09:11.762Z,0.00
2023-01-28T03:10:12.230Z,0.00
2023-01-28T03:11:11.726Z,0.00
2023-01-28T03:12:12.403Z,0.00
2023-01-28T03:13:11.716Z,0.00
2023-01-28T03:14:11.732Z,0.00
2023-01-28T03:15:11.725Z,0.00
2023-01-28T03:16:11.705Z,0.00
2023-01-28T03:17:11.667Z,0.00
2023-01-28T03:18:11.657Z,0.00
2023-01-28T03:19:11.640Z,0.00
2023-01-28T03:20:11.637Z,0.00
2023-01-28T03:21:11.625Z,0.00
2023-01-28T03:22:11.592Z,0.00
2023-01-28T03:23:11.595Z,0.00
2023-01-28T03:24:11.667Z,0.00
2023-01-28T03:25:11.773Z,0.00
2023-01-28T03:26:11.936Z,0.00
2023-01-28T03:27:12.295Z,0.00
2023-01-28T03:28:11.871Z,0.00
2023-01-28T03:29:11.620Z,0.00
2023-01-28T03:30:11.561Z,0.00
2023-01-28T03:31:12.296Z,0.00
2023-01-28T03:32:11.800Z,0.00
2023-01-28T03:33:11.839Z,0.00
2023-01-28T03:34:11.503Z,0.00
2023-01-28T03:35:11.494Z,0.00
2023-01-28T03:36:11.535Z,0.00
2023-01-28T03:37:11.424Z,0.00
2023-01-28T03:38:11.428Z,0.00
2023-01-28T03:39:11.388Z,0.00
2023-01-28T03:40:11.391Z,0.00
2023-01-28T03:41:11.386Z,0.00
2023-01-28T03:42:11.342Z,0.00
2023-01-28T03:43:11.343Z,0.00
2023-01-28T03:44:11.353Z,0.00
2023-01-28T03:45:12.028Z,0.00
2023-01-28T03:46:11.311Z,0.00
2023-01-28T03:47:11.294Z,0.00
2023-01-28T03:48:11.276Z,0.00
2023-01-28T03:49:11.275Z,0.00
2023-01-28T03:50:11.383Z,0.00
2023-01-28T03:51:11.291Z,0.00
2023-01-28T03:52:11.498Z,0.00
2023-01-28T03:53:13.511Z,0.00
2023-01-28T03:54:11.204Z,0.00
2023-01-28T03:55:11.198Z,0.00
2023-01-28T03:56:11.846Z,0.00
2023-01-28T03:57:11.185Z,0.00
2023-01-28T03:58:11.158Z,0.00
2023-01-28T03:59:11.144Z,0.00
2023-01-28T04:00:11.136Z,0.00
2023-01-28T04:01:11.116Z,0.00
2023-01-28T04:02:11.238Z,0.00
2023-01-28T04:03:11.229Z,0.00
2023-01-28T04:04:11.090Z,0.00
2023-01-28T04:05:11.086Z,0.00
2023-01-28T04:06:11.047Z,0.00
2023-01-28T04:07:11.071Z,0.00
2023-01-28T04:08:11.086Z,0.00
2023-01-28T04:09:11.058Z,0.00
2023-01-28T04:10:11.024Z,0.00
2023-01-28T04:11:11.001Z,0.00
2023-01-28T04:12:10.997Z,0.00
2023-01-28T04:13:13.324Z,0.00
2023-01-28T04:14:10.971Z,0.00
2023-01-28T04:15:10.959Z,0.00
2023-01-28T04:16:10.997Z,0.00
2023-01-28T04:17:11.140Z,0.00
2023-01-28T04:18:10.929Z,0.00
2023-01-28T04:19:10.930Z,0.00
2023-01-28T04:20:10.919Z,0.00
2023-01-28T04:21:10.889Z,0.00
2023-01-28T04:22:10.877Z,0.00
2023-01-28T04:23:10.850Z,0.00
2023-01-28T04:24:10.893Z,0.00
2023-01-28T04:25:10.831Z,0.00
2023-01-28T04:26:10.833Z,0.00
2023-01-28T04:27:10.809Z,0.00
2023-01-28T04:28:10.793Z,0.00
2023-01-28T04:29:10.782Z,0.00
2023-01-28T04:30:10.777Z,0.00
2023-01-28T04:31:10.789Z,0.00
2023-01-28T04:32:11.781Z,0.00
2023-01-28T04:33:15.359Z,0.00
2023-01-28T04:34:10.731Z,0.00
2023-01-28T04:35:10.729Z,0.00
2023-01-28T04:36:10.693Z,0.00
2023-01-28T04:37:10.689Z,0.00
2023-01-28T04:38:11.333Z,0.00
2023-01-28T04:39:14.543Z,0.00
2023-01-28T04:40:11.358Z,0.00
2023-01-28T04:41:10.651Z,0.00
2023-01-28T04:42:10.622Z,0.00
2023-01-28T04:43:10.609Z,0.00
2023-01-28T04:44:10.621Z,0.00
2023-01-28T04:45:10.587Z,0.00
2023-01-28T04:46:10.590Z,0.00
2023-01-28T04:47:10.565Z,0.00
2023-01-28T04:48:10.555Z,0.00
2023-01-28T04:49:10.549Z,0.00
2023-01-28T04:50:10.567Z,0.00
2023-01-28T04:51:10.526Z,0.00
2023-01-28T04:52:10.757Z,0.00
2023-01-28T04:53:10.514Z,0.00
2023-01-28T04:54:10.477Z,0.00
2023-01-28T04:55:10.469Z,0.00
2023-01-28T04:56:10.560Z,0.00
2023-01-28T04:57:10.437Z,0.00
2023-01-28T04:58:10.449Z,0.00
2023-01-28T04:59:10.413Z,0.00
2023-01-28T05:00:10.387Z,0.00
2023-01-28T05:01:10.430Z,0.00
2023-01-28T05:02:10.610Z,0.00
2023-01-28T05:03:10.370Z,0.00
2023-01-28T05:04:10.351Z,0.00
2023-01-28T05:05:10.368Z,0.00
2023-01-28T05:06:10.379Z,0.00
2023-01-28T05:07:10.309Z,0.00
2023-01-28T05:08:10.965Z,0.00
2023-01-28T05:09:11.233Z,0.00
2023-01-28T05:10:10.285Z,0.00
2023-01-28T05:11:10.279Z,0.00
2023-01-28T05:12:10.259Z,0.00
2023-01-28T05:13:10.925Z,0.00
2023-01-28T05:14:10.501Z,0.00
2023-01-28T05:15:10.220Z,0.00
2023-01-28T05:16:10.238Z,0.00
2023-01-28T05:17:10.515Z,0.00
2023-01-28T05:18:10.185Z,0.00
2023-01-28T05:19:10.174Z,0.00
2023-01-28T05:20:10.281Z,0.00
2023-01-28T05:21:10.153Z,0.00
2023-01-28T05:22:10.134Z,0.00
2023-01-28T05:23:10.127Z,0.00
2023-01-28T05:24:10.180Z,0.00
2023-01-28T05:25:10.954Z,0.00
2023-01-28T05:26:10.487Z,0.00
2023-01-28T05:27:10.574Z,0.00
2023-01-28T05:28:10.052Z,0.00
2023-01-28T05:29:10.094Z,0.00
2023-01-28T05:30:10.056Z,0.00
2023-01-28T05:31:10.050Z,0.00
2023-01-28T05:32:10.059Z,0.00
2023-01-28T05:33:09.995Z,0.00
2023-01-28T05:34:09.984Z,0.00
2023-01-28T05:35:14.164Z,0.00
2023-01-28T05:36:09.957Z,0.00
2023-01-28T05:37:09.971Z,0.00
2023-01-28T05:38:09.945Z,0.00
2023-01-28T05:39:09.933Z,0.00
2023-01-28T05:40:09.907Z,0.00
2023-01-28T05:41:09.902Z,0.00
2023-01-28T05:42:09.888Z,0.00
2023-01-28T05:43:09.940Z,0.00
2023-01-28T05:44:09.977Z,0.00
2023-01-28T05:45:13.964Z,0.00
2023-01-28T05:46:09.846Z,0.00
2023-01-28T05:47:09.859Z,0.00
2023-01-28T05:48:09.822Z,0.00
2023-01-28T05:49:09.816Z,0.00
2023-01-28T05:50:09.844Z,0.00
2023-01-28T05:51:09.777Z,0.00
2023-01-28T05:52:09.782Z,0.00
2023-01-28T05:53:09.782Z,0.00
2023-01-28T05:54:09.794Z,0.00
2023-01-28T05:55:10.126Z,0.00
2023-01-28T05:56:09.904Z,0.00
2023-01-28T05:57:10.031Z,0.00
2023-01-28T05:58:09.773Z,0.00
2023-01-28T05:59:10.561Z,0.00
2023-01-28T06:00:09.738Z,0.00
2023-01-28T06:01:09.948Z,0.00
2023-01-28T06:02:09.880Z,0.00
2023-01-28T06:03:10.944Z,0.00
2023-01-28T06:04:09.782Z,0.00
2023-01-28T06:05:10.956Z,0.00
2023-01-28T06:06:09.947Z,0.00
2023-01-28T06:07:09.941Z,0.00
2023-01-28T06:08:09.706Z,0.00
2023-01-28T06:09:09.879Z,0.00
2023-01-28T06:10:09.889Z,0.00
2023-01-28T06:11:09.872Z,0.00
2023-01-28T06:12:10.126Z,0.00
2023-01-28T06:13:09.898Z,0.00
2023-01-28T06:14:09.643Z,0.00
2023-01-28T06:15:09.849Z,0.00
2023-01-28T06:16:09.642Z,0.00
2023-01-28T06:17:09.597Z,0.00
2023-01-28T06:18:09.548Z,0.00
2023-01-28T06:19:10.053Z,0.00
2023-01-28T06:20:09.603Z,0.00
2023-01-28T06:21:09.773Z,0.00
2023-01-28T06:22:09.861Z,0.00
2023-01-28T06:23:09.672Z,0.00
2023-01-28T06:24:09.483Z,0.00
2023-01-28T06:25:09.420Z,0.00
2023-01-28T06:26:09.626Z,0.00
2023-01-28T06:27:09.349Z,0.00
2023-01-28T06:28:09.355Z,0.00
2023-01-28T06:29:09.331Z,0.00
2023-01-28T06:30:09.311Z,0.00
2023-01-28T06:31:09.315Z,0.00
2023-01-28T06:32:09.354Z,0.00
2023-01-28T06:33:09.284Z,0.00
2023-01-28T06:34:09.259Z,0.00
2023-01-28T06:35:09.252Z,0.00
2023-01-28T06:36:09.923Z,1.00
2023-01-28T06:37:09.220Z,1.00
2023-01-28T06:38:09.239Z,1.00
2023-01-28T06:39:09.469Z,0.00
2023-01-28T06:40:09.184Z,0.00
2023-01-28T06:41:09.170Z,0.00
2023-01-28T06:42:09.197Z,0.00
2023-01-28T06:43:09.400Z,2.00
2023-01-28T06:44:09.171Z,2.00
2023-01-28T06:45:12.924Z,0.00
2023-01-28T06:46:09.133Z,4.00
2023-01-28T06:47:09.108Z,2.00
2023-01-28T06:48:09.128Z,1.00
2023-01-28T06:49:09.078Z,1.00
2023-01-28T06:50:09.091Z,9.00
2023-01-28T06:51:09.052Z,9.00
2023-01-28T06:52:09.043Z,11.00
2023-01-28T06:53:09.021Z,4.00
2023-01-28T06:54:09.047Z,4.00
2023-01-28T06:55:09.003Z,15.00
2023-01-28T06:56:09.042Z,17.00
2023-01-28T06:57:09.002Z,22.00
2023-01-28T06:58:09.004Z,24.00
2023-01-28T06:59:08.967Z,20.00
2023-01-28T07:00:08.954Z,29.00
2023-01-28T07:01:08.934Z,24.00
2023-01-28T07:02:09.044Z,35.00
2023-01-28T07:03:08.957Z,37.00
2023-01-28T07:04:08.909Z,34.00
2023-01-28T07:05:08.879Z,44.00
2023-01-28T07:06:08.876Z,58.00
2023-01-28T07:07:08.857Z,57.00
2023-01-28T07:08:09.927Z,75.00
2023-01-28T07:09:08.826Z,67.00
2023-01-28T07:10:08.831Z,82.00
2023-01-28T07:11:08.816Z,93.00
2023-01-28T07:12:09.185Z,112.00
2023-01-28T07:13:08.804Z,122.00
2023-01-28T07:14:08.906Z,144.00
2023-01-28T07:15:08.778Z,150.00
2023-01-28T07:16:08.762Z,169.00
2023-01-28T07:17:08.759Z,186.00
2023-01-28T07:18:08.720Z,209.00
2023-01-28T07:19:08.708Z,223.00
2023-01-28T07:20:08.734Z,244.00
2023-01-28T07:21:08.939Z,261.00
2023-01-28T07:22:08.689Z,284.00
2023-01-28T07:23:08.677Z,285.00
2023-01-28T07:24:08.728Z,294.00
2023-01-28T07:25:08.667Z,308.00
2023-01-28T07:26:08.784Z,323.00
2023-01-28T07:27:08.613Z,331.00
2023-01-28T07:28:08.611Z,347.00
2023-01-28T07:29:08.604Z,366.00
2023-01-28T07:30:08.588Z,382.00
2023-01-28T07:31:08.647Z,401.00
2023-01-28T07:32:08.712Z,425.00
2023-01-28T07:33:08.551Z,446.00
2023-01-28T07:34:08.536Z,462.00
2023-01-28T07:35:08.538Z,471.00
2023-01-28T07:36:08.511Z,483.00
2023-01-28T07:37:08.490Z,491.00
2023-01-28T07:38:08.597Z,515.00
2023-01-28T07:39:08.461Z,535.00
2023-01-28T07:40:08.604Z,576.00
2023-01-28T07:41:08.461Z,589.00
2023-01-28T07:42:08.424Z,617.00
2023-01-28T07:43:08.433Z,656.00
2023-01-28T07:44:08.444Z,716.00
2023-01-28T07:45:08.408Z,769.00
2023-01-28T07:46:08.383Z,811.00
2023-01-28T07:47:08.449Z,835.00
2023-01-28T07:48:08.377Z,858.00
2023-01-28T07:49:08.352Z,883.00
2023-01-28T07:50:08.468Z,892.00
2023-01-28T07:51:08.315Z,900.00
2023-01-28T07:52:08.325Z,907.00
2023-01-28T07:53:08.299Z,928.00
2023-01-28T07:54:08.295Z,977.00
2023-01-28T07:55:08.355Z,1019.00
2023-01-28T07:56:08.299Z,1061.00
2023-01-28T07:57:09.015Z,1073.00
2023-01-28T07:58:08.268Z,1067.00
2023-01-28T07:59:08.237Z,1077.00
2023-01-28T08:00:08.237Z,1091.00
2023-01-28T08:01:08.901Z,1084.00
2023-01-28T08:02:08.225Z,1083.00
2023-01-28T08:03:08.427Z,1091.00
2023-01-28T08:04:08.241Z,1110.00
2023-01-28T08:05:08.300Z,1129.00
2023-01-28T08:06:08.170Z,1140.00
2023-01-28T08:07:08.327Z,1155.00
2023-01-28T08:08:08.239Z,1165.00
2023-01-28T08:09:08.119Z,1185.00
2023-01-28T08:10:08.113Z,1215.00
2023-01-28T08:11:08.079Z,1219.00
2023-01-28T08:12:08.087Z,1247.00
2023-01-28T08:13:08.068Z,1252.00
2023-01-28T08:14:08.069Z,1268.00
2023-01-28T08:15:08.021Z,1284.00
2023-01-28T08:16:08.056Z,1303.00
2023-01-28T08:17:08.008Z,1306.00
2023-01-28T08:18:08.001Z,1313.00
2023-01-28T08:19:07.981Z,1359.00
2023-01-28T08:20:08.014Z,1429.00
2023-01-28T08:21:07.970Z,1489.00
2023-01-28T08:22:07.941Z,1523.00
2023-01-28T08:23:07.953Z,1529.00
2023-01-28T08:24:07.958Z,1486.00
2023-01-28T08:25:07.890Z,1445.00
2023-01-28T08:26:07.930Z,1385.00
2023-01-28T08:27:08.581Z,1304.00
2023-01-28T08:28:07.907Z,1321.00
2023-01-28T08:29:08.111Z,1323.00
2023-01-28T08:30:08.110Z,1357.00
2023-01-28T08:31:07.951Z,1367.00
2023-01-28T08:32:07.890Z,1339.00
2023-01-28T08:33:07.792Z,1311.00
2023-01-28T08:34:07.794Z,1339.00
2023-01-28T08:35:07.796Z,1297.00
2023-01-28T08:36:08.036Z,1156.00
2023-01-28T08:37:07.747Z,1107.00
2023-01-28T08:38:07.794Z,1123.00
2023-01-28T08:39:07.770Z,1158.00
2023-01-28T08:40:07.724Z,1228.00
2023-01-28T08:41:07.722Z,1398.00
2023-01-28T08:42:07.698Z,1608.00
2023-01-28T08:43:07.700Z,1773.00
2023-01-28T08:44:07.718Z,1841.00
2023-01-28T08:45:07.656Z,1903.00
2023-01-28T08:46:07.708Z,1940.00
2023-01-28T08:47:07.656Z,1965.00
2023-01-28T08:48:07.631Z,2048.00
2023-01-28T08:49:07.607Z,2131.00
2023-01-28T08:50:07.673Z,2161.00
2023-01-28T08:51:07.606Z,2214.00
2023-01-28T08:52:07.577Z,2274.00
2023-01-28T08:53:07.570Z,2357.00
2023-01-28T08:54:07.565Z,2540.00
2023-01-28T08:55:07.539Z,2773.00
2023-01-28T08:56:07.643Z,2984.00
2023-01-28T08:57:07.522Z,3173.00
2023-01-28T08:58:07.510Z,3346.00
2023-01-28T08:59:07.503Z,3547.00
2023-01-28T09:00:07.502Z,3767.00
2023-01-28T09:01:07.498Z,3991.00
2023-01-28T09:02:10.594Z,4175.00
2023-01-28T09:03:08.470Z,4291.00
2023-01-28T09:04:07.446Z,4302.00
2023-01-28T09:05:07.451Z,4236.00
2023-01-28T09:06:07.412Z,4163.00
2023-01-28T09:07:07.431Z,4080.00
2023-01-28T09:08:07.436Z,4006.00
2023-01-28T09:09:07.393Z,3915.00
2023-01-28T09:10:07.362Z,3779.00
2023-01-28T09:11:07.354Z,3727.00
2023-01-28T09:12:07.343Z,3770.00
2023-01-28T09:13:07.328Z,3799.00
2023-01-28T09:14:07.362Z,3863.00
2023-01-28T09:15:07.321Z,3933.00
2023-01-28T09:16:07.403Z,3963.00
2023-01-28T09:17:07.273Z,3967.00
2023-01-28T09:18:07.276Z,4070.00
2023-01-28T09:19:07.263Z,4208.00
2023-01-28T09:20:07.342Z,4305.00
2023-01-28T09:21:07.257Z,4353.00
2023-01-28T09:22:07.224Z,4441.00
2023-01-28T09:23:07.467Z,4542.00
2023-01-28T09:24:08.150Z,4687.00
2023-01-28T09:25:07.172Z,4878.00
2023-01-28T09:26:07.835Z,5034.00
2023-01-28T09:27:07.145Z,5167.00
2023-01-28T09:28:07.147Z,5258.00
2023-01-28T09:29:07.393Z,5209.00
2023-01-28T09:30:07.162Z,5125.00
2023-01-28T09:31:07.311Z,5076.00
2023-01-28T09:32:07.136Z,4975.00
2023-01-28T09:33:07.077Z,4779.00
2023-01-28T09:34:07.346Z,4948.00
2023-01-28T09:35:07.048Z,4845.00
2023-01-28T09:36:07.087Z,4908.00
2023-01-28T09:37:07.027Z,4948.00
2023-01-28T09:38:07.072Z,4969.00
2023-01-28T09:39:06.998Z,4967.00
2023-01-28T09:40:07.002Z,4934.00
2023-01-28T09:41:06.979Z,4921.00
2023-01-28T09:42:06.968Z,4874.00
2023-01-28T09:43:06.957Z,4810.00
2023-01-28T09:44:06.982Z,4801.00
2023-01-28T09:45:06.928Z,4816.00
2023-01-28T09:46:06.934Z,4771.00
2023-01-28T09:47:06.901Z,4756.00
2023-01-28T09:48:06.890Z,4813.00
2023-01-28T09:49:06.879Z,4892.00
2023-01-28T09:50:06.914Z,4902.00
2023-01-28T09:51:06.856Z,4847.00
2023-01-28T09:52:06.842Z,4717.00
2023-01-28T09:53:06.820Z,4568.00
2023-01-28T09:54:06.830Z,4480.00
2023-01-28T09:55:06.825Z,4496.00
2023-01-28T09:56:07.093Z,4467.00
2023-01-28T09:57:06.787Z,4380.00
2023-01-28T09:58:06.784Z,4271.00
2023-01-28T09:59:06.749Z,4178.00
2023-01-28T10:00:06.767Z,4180.00
2023-01-28T10:01:07.003Z,4320.00
2023-01-28T10:02:06.833Z,4472.00
2023-01-28T10:03:06.710Z,4583.00
2023-01-28T10:04:06.842Z,4666.00
2023-01-28T10:05:06.691Z,4755.00
2023-01-28T10:06:06.934Z,4916.00
2023-01-28T10:07:06.938Z,5042.00
2023-01-28T10:08:06.653Z,5131.00
2023-01-28T10:09:06.643Z,5172.00
2023-01-28T10:10:06.650Z,5230.00
2023-01-28T10:11:06.597Z,5332.00
2023-01-28T10:12:06.608Z,5338.00
2023-01-28T10:13:06.596Z,5352.00
2023-01-28T10:14:06.606Z,5337.00
2023-01-28T10:15:06.562Z,5352.00
2023-01-28T10:16:06.556Z,5300.00
2023-01-28T10:17:06.564Z,5178.00
2023-01-28T10:18:16.628Z,5029.00
2023-01-28T10:19:07.528Z,5003.00
2023-01-28T10:20:06.525Z,4973.00
2023-01-28T10:21:06.478Z,4880.00
2023-01-28T10:22:06.738Z,4851.00
2023-01-28T10:23:06.457Z,4999.00
2023-01-28T10:24:06.511Z,5177.00
2023-01-28T10:25:06.491Z,5285.00
2023-01-28T10:26:06.428Z,5418.00
2023-01-28T10:27:06.409Z,5473.00
2023-01-28T10:28:06.400Z,5366.00
2023-01-28T10:29:06.405Z,5220.00
2023-01-28T10:30:06.369Z,5220.00
2023-01-28T10:31:06.501Z,5353.00
2023-01-28T10:32:06.358Z,5462.00
2023-01-28T10:33:06.355Z,5471.00
2023-01-28T10:34:06.327Z,5446.00
2023-01-28T10:35:06.308Z,5558.00
2023-01-28T10:36:06.319Z,5687.00
2023-01-28T10:37:06.322Z,5827.00
2023-01-28T10:38:06.278Z,5959.00
2023-01-28T10:39:06.252Z,6133.00
2023-01-28T10:40:06.255Z,6342.00
2023-01-28T10:41:08.767Z,6570.00
2023-01-28T10:42:06.233Z,6710.00
2023-01-28T10:43:06.223Z,6795.00
2023-01-28T10:44:06.434Z,6511.00
2023-01-28T10:45:06.199Z,6294.00
2023-01-28T10:46:06.234Z,6366.00
2023-01-28T10:47:06.164Z,6683.00
2023-01-28T10:48:06.143Z,6864.00
2023-01-28T10:49:06.157Z,6698.00
2023-01-28T10:50:06.117Z,6697.00
2023-01-28T10:51:06.144Z,6700.00
2023-01-28T10:52:06.115Z,7005.00
2023-01-28T10:53:10.622Z,8163.00
2023-01-28T10:54:06.063Z,8409.00
2023-01-28T10:55:06.809Z,8690.00
2023-01-28T10:56:06.166Z,8772.00
2023-01-28T10:57:06.162Z,9020.00
2023-01-28T10:58:06.207Z,9239.00
2023-01-28T10:59:06.421Z,8138.00
2023-01-28T11:00:06.431Z,7774.00
2023-01-28T11:01:06.290Z,7264.00
2023-01-28T11:02:06.209Z,6297.00
2023-01-28T11:03:06.113Z,5658.00
2023-01-28T11:04:07.059Z,5408.00
2023-01-28T11:05:06.188Z,5016.00
2023-01-28T11:06:06.051Z,4851.00
2023-01-28T11:07:06.309Z,4910.00
2023-01-28T11:08:08.419Z,8107.00
2023-01-28T11:09:06.179Z,8055.00
2023-01-28T11:10:06.492Z,7951.00
2023-01-28T11:11:07.117Z,7756.00
2023-01-28T11:12:06.981Z,7921.00
2023-01-28T11:13:08.172Z,7711.00
2023-01-28T11:14:06.998Z,7915.00
2023-01-28T11:15:06.124Z,8037.00
2023-01-28T11:16:08.055Z,8212.00
2023-01-28T11:17:07.753Z,8394.00
2023-01-28T11:18:07.666Z,8474.00
2023-01-28T11:19:28.915Z,8429.00
2023-01-28T11:20:06.875Z,8377.00
2023-01-28T11:21:06.176Z,8229.00
2023-01-28T11:22:07.428Z,8357.00
2023-01-28T11:23:05.996Z,8466.00
2023-01-28T11:24:29.884Z,8343.00
2023-01-28T11:25:08.012Z,7832.00
2023-01-28T11:26:06.322Z,7508.00
2023-01-28T11:27:06.955Z,7399.00
2023-01-28T11:28:06.445Z,7469.00
2023-01-28T11:29:06.199Z,8100.00
2023-01-28T11:30:13.499Z,8649.00
2023-01-28T11:31:06.808Z,8875.00
2023-01-28T11:32:06.780Z,7614.00
2023-01-28T11:33:07.736Z,7222.00
2023-01-28T11:34:06.880Z,7215.00
2023-01-28T11:35:06.878Z,7297.00
2023-01-28T11:36:06.624Z,7181.00
2023-01-28T11:37:07.073Z,7039.00
2023-01-28T11:38:06.005Z,7132.00
2023-01-28T11:39:09.237Z,7519.00
2023-01-28T11:40:06.841Z,7874.00
2023-01-28T11:41:08.476Z,7898.00
2023-01-28T11:42:28.176Z,7538.00
2023-01-28T11:43:06.632Z,7240.00
2023-01-28T11:44:05.962Z,7192.00
2023-01-28T11:45:06.045Z,7233.00
2023-01-28T11:46:06.521Z,7100.00
2023-01-28T11:47:06.380Z,6615.00
2023-01-28T11:48:26.932Z,6272.00
2023-01-28T11:49:07.211Z,5887.00
2023-01-28T11:50:06.102Z,5895.00
2023-01-28T11:51:06.161Z,5879.00
2023-01-28T11:52:05.927Z,6647.00
2023-01-28T11:53:07.659Z,6616.00
2023-01-28T11:54:06.641Z,8407.00
2023-01-28T11:55:06.045Z,8521.00
2023-01-28T11:56:05.563Z,8505.00
2023-01-28T11:57:07.603Z,8534.00
2023-01-28T11:58:05.949Z,8482.00
2023-01-28T11:59:07.688Z,8511.00
2023-01-28T12:00:05.552Z,8550.00
2023-01-28T12:01:06.862Z,8557.00
2023-01-28T12:02:05.931Z,8549.00
2023-01-28T12:03:06.849Z,8561.00
2023-01-28T12:04:05.808Z,8545.00
2023-01-28T12:05:05.587Z,8542.00
2023-01-28T12:06:07.755Z,8559.00
2023-01-28T12:07:05.470Z,8568.00
2023-01-28T12:08:06.962Z,7819.00
2023-01-28T12:09:05.430Z,7838.00
2023-01-28T12:10:06.296Z,8720.00
2023-01-28T12:11:05.947Z,8833.00
2023-01-28T12:12:05.473Z,8722.00
2023-01-28T12:13:06.358Z,8052.00
2023-01-28T12:14:07.086Z,8554.00
2023-01-28T12:15:05.555Z,8651.00
2023-01-28T12:16:05.769Z,8757.00
2023-01-28T12:17:05.864Z,8723.00
2023-01-28T12:18:05.853Z,8707.00
2023-01-28T12:19:05.523Z,8855.00
2023-01-28T12:20:05.687Z,9079.00
2023-01-28T12:21:06.941Z,9228.00
2023-01-28T12:22:05.399Z,9247.00
2023-01-28T12:23:07.099Z,9341.00
2023-01-28T12:24:05.668Z,9479.00
2023-01-28T12:25:09.859Z,8433.00
2023-01-28T12:26:05.555Z,8045.00
2023-01-28T12:27:05.237Z,8603.00
2023-01-28T12:28:06.718Z,9164.00
2023-01-28T12:29:05.870Z,9322.00
2023-01-28T12:30:06.391Z,9557.00
2023-01-28T12:31:05.331Z,8476.00
2023-01-28T12:32:11.172Z,7903.00
2023-01-28T12:33:06.340Z,8210.00
2023-01-28T12:34:07.701Z,8458.00
2023-01-28T12:35:06.029Z,7992.00
2023-01-28T12:36:05.113Z,7219.00
2023-01-28T12:37:05.870Z,7021.00
2023-01-28T12:38:06.599Z,6715.00
2023-01-28T12:39:13.478Z,6419.00
2023-01-28T12:40:20.686Z,6310.00
2023-01-28T12:41:06.182Z,6341.00
2023-01-28T12:42:05.533Z,6375.00
2023-01-28T12:43:10.790Z,6348.00
2023-01-28T12:44:06.510Z,6350.00
2023-01-28T12:45:05.543Z,6381.00